Aeroporto :
LOGIN :

Iscrizione | Disclaimer

   EN    FR    IT 

 










Sommario :    VFR   VFR Marginale   IFR   IFR Intensivo   IFR Molto Intensivo
Visibilità : 
Base nubi : 
>= 8 km
>= 3000ft
5 / 8 km
1000 / 3000 ft
1500m / 5 km
500 / 1000 ft
800 / 1500m
200 / 500 ft
< 800m
< 200 ft
Simboli :   Temporali  Nebbia  Neve Forte  Precipitazioni Forti  Vento > 20 kt
SIGMETs :   Varie  Temporali  Ghiacco  Turbolenza  Onda orograficha  Ceneri Vulcaniche






- Altitudine del aeroporto : 1000 ft
- Codice IATA : PEV


LHPP - Pécs Pogany

ULTIMO METAR :
  • 131015Z AUTO VRB03KT CAVOK 34/19 Q1011

METARs OBSOLETI :
  • 130945Z AUTO VRB04KT CAVOK 34/18 Q1011
  • 130915Z AUTO VRB05KT CAVOK 33/19 Q1011
  • 130845Z AUTO 29005KT 240V030 CAVOK 33/19 Q1011
  • 130815Z AUTO VRB03KT CAVOK 32/19 Q1011
  • 130745Z AUTO 33005KT 280V050 CAVOK 31/19 Q1011
  • 130715Z AUTO 33007KT 300V020 CAVOK 31/19 Q1011
  • 130645Z AUTO 33006KT 280V360 CAVOK 30/20 Q1011
  • 130615Z AUTO 33008KT 300V360 CAVOK 29/20 Q1011

TAF TAF LHPP
Valido dal 13 a 09 ore il 13 a 18 ore UTC


130815Z 1309/1318 33005KT CAVOK
PROB30
TEMPO 1312/1318 VRB20G35KT 4000 TSRA SHRA SCT060CB



MetMap, La meteo Aeronautica in un colpo d'occhio ! - Copyright ORBIFLY Dicembre 2007 - Disclaimer

ORBIFLY MET'MAP TEAM :

Programmazione e sviluppo : Alexandra Zaïnal
Concezione : Baudouin d'Aumeries
Supporto tecnico e logistico : Manuel Goepfert
Aiuto : Marc-Olivier Méhu
Aiuto per la traduzione : Arnaldo La Scala




FONTI E CREDITI :

   NOAA